Flight Track Log - Related Links

Times and Time Zones

All times are in EDT time to prevent confusion due to time zone crossing. See the FLG4262 flight status page for this flight to view local times or setup timezone preferences in your user account.

Time Position Orientation Groundspeed Altitude Reporting Facility
EDT Latitude Longitude Course Direction KTS MPH feet Rate Location/Type
Sun 03:51:50 PM 42.1903 -83.3536 181° South 164 189 1,300  Level Cleveland Center
Sun 03:52:32 PM 42.1547 -83.3542 181° South 199 229 2,500 2,114 Climbing Cleveland Center
Sun 03:53:18 PM 42.1131 -83.3481 174° South 193 222 4,400 2,239 Climbing Cleveland Center
Sun 03:53:39 PM 42.0906 -83.3453 175° South 236 272 5,000 2,516 Climbing Cleveland Center
Sun 03:54:20 PM 42.0447 -83.3350 171° South 244 281 7,000 2,727 Climbing Cleveland Center
Sun 03:54:34 PM 42.0319 -83.3144 130° Southeast 282 325 7,500 2,129 Climbing Cleveland Center
Sun 03:55:22 PM 42.0422 -83.2339 80° East 319 367 9,200 1,964 Climbing Cleveland Center
Sun 03:56:24 PM 42.0925 -83.1350 56° Northeast 330 380 11,100 1,645 Climbing Cleveland Center
Sun 03:57:26 PM 42.1431 -83.0156 60° Northeast 369 425 12,600 1,548 Climbing Cleveland Center
Sun 03:58:28 PM 42.2047 -82.8619 62° Northeast 392 451 14,300 1,500 Climbing Cleveland Center
Sun 03:59:30 PM 42.2589 -82.7275 61° Northeast 407 468 15,700 1,210 Climbing Cleveland Center
Sun 04:00:32 PM 42.3144 -82.5875 62° Northeast 421 484 16,800 945 Climbing Cleveland Center
Sun 04:01:37 PM 42.3644 -82.4383 66° East 440 506 17,700 960 Climbing Cleveland Center
Sun 04:02:37 PM 42.3606 -82.2739 92° East 441 507 18,800 1,131 Climbing Cleveland Center
Sun 04:03:39 PM 42.3528 -82.0875 93° East 445 512 20,000 1,161 Climbing Cleveland Center
Sun 04:04:41 PM 42.3461 -81.9183 93° East 446 513 21,200 1,403 Climbing Cleveland Center
Sun 04:05:43 PM 42.3383 -81.7517 94° East 442 509 22,900 1,065 Climbing Cleveland Center
Sun 04:06:45 PM 42.3303 -81.5856 94° East 439 505 23,400 484 Climbing Cleveland Center
Sun 04:07:47 PM 42.3222 -81.4125 94° East 451 519 23,900 532 Climbing Cleveland Center
Sun 04:08:49 PM 42.3122 -81.2039 94° East 469 540 24,500 532 Climbing Cleveland Center
Sun 04:09:51 PM 42.3031 -81.0231 94° East 475 547 25,000 532 Climbing Cleveland Center
Sun 04:10:53 PM 42.2931 -80.8414 94° East 479 551 25,600 532 Climbing Cleveland Center
Sun 04:11:55 PM 42.2842 -80.6597 94° East 480 552 26,100 484 Climbing Cleveland Center
Sun 04:12:57 PM 42.2739 -80.4769 94° East 482 555 26,600 435 Climbing Cleveland Center
Sun 04:13:59 PM 42.2644 -80.2919 94° East 489 563 27,000 194 Climbing Cleveland Center
Sun 04:15:01 PM 42.2528 -80.1031 95° East 497 572 27,000  Level Cleveland Center
Sun 04:16:03 PM 42.2397 -79.8939 95° East 509 586 27,000  Level Cleveland Center
Sun 04:17:05 PM 42.2272 -79.7019 95° East 517 595 27,000  Level Cleveland Center
Sun 04:18:08 PM 42.2147 -79.5092 95° East 518 596 27,000  Level Cleveland Center
Sun 04:19:10 PM 42.1992 -79.2764 95° East 521 600 27,000  Level Cleveland Center
Sun 04:20:12 PM 42.1894 -79.0811 94° East 522 601 27,000  Level Cleveland Center
Sun 04:21:14 PM 42.1933 -78.8894 88° East 520 598 27,000  Level Cleveland Center
Sun 04:22:16 PM 42.1964 -78.6958 89° East 518 596 27,000  Level Cleveland Center
Sun 04:23:18 PM 42.2000 -78.5019 88° East 519 597 27,000  Level Cleveland Center
Sun 04:24:20 PM 42.2025 -78.3083 89° East 520 598 27,000 -532 Level Cleveland Center
Sun 04:25:22 PM 42.2056 -78.0781 89° East 517 595 25,900 -1,016 Descending Cleveland Center
Sun 04:26:24 PM 42.2078 -77.8892 89° East 514 592 24,900 -968 Descending Cleveland Center
Sun 04:27:26 PM 42.2097 -77.7022 89° East 509 586 23,900 -1,500 Descending Cleveland Center
Sun 04:28:28 PM 42.2108 -77.5169 89° East 504 580 21,800 -2,419 Descending Cleveland Center
Sun 04:29:30 PM 42.2117 -77.3000 90° East 493 567 18,900 -2,032 Descending Cleveland Center
Sun 04:30:32 PM 42.2128 -77.1247 89° East 478 550 17,600 -1,344 Descending Cleveland Center
Sun 04:31:35 PM 42.2136 -76.9528 90° East 466 536 16,100 -1,680 Descending Cleveland Center
Sun 04:32:37 PM 42.1975 -76.8006 98° East 420 483 14,100 -2,177 Descending Cleveland Center
Sun 04:33:39 PM 42.1653 -76.6586 107° East 400 460 11,600 -1,839 Descending Cleveland Center
Sun 04:34:41 PM 42.1778 -76.4992 84° East 355 409 10,300 -1,500 Descending Cleveland Center
Sun 04:35:43 PM 42.1847 -76.3817 85° East 321 369 8,500 -2,129 Descending Cleveland Center
Sun 04:36:45 PM 42.2053 -76.2675 76° East 305 351 5,900 -2,191 Descending Cleveland Center
Sun 04:37:38 PM 42.2433 -76.1881 57° Northeast 286 329 4,300 -1,009 Descending New York Center
Sun 04:38:38 PM 42.2819 -76.1128 55° Northeast 263 303 4,000 -550 Descending New York Center
Sun 04:39:38 PM 42.2831 -76.0456 89° East 183 211 3,200 -850 Descending New York Center
Sun 04:40:38 PM 42.2450 -76.0119 147° Southeast 147 169 2,300 -500 Descending New York Center
Sun 04:41:38 PM 42.2367 -75.9636 103° East 141 162 2,200 -100 Descending New York Center

Login

Don't have an account? Register now (free) for customized features, flight alerts, and more!